Time;durP1;ratioP1;P1;durP2;ratioP2;P2;SDS_P1;SDS_P2;PMS_P1;PMS_P2;Temp;Humidity;BMP_temperature;BMP_pressure;BME280_temperature;BME280_humidity;BME280_pressure;Samples;Min_cycle;Max_cycle;Signal;HPM_P1;HPM_P2
2022/09/22 00:00:53;;;;;;;7.93;7.53;;;4.90;99.90;;;;;;5070043;28;20240;-80
2022/09/22 00:03:19;;;;;;;7.90;7.40;;;4.90;99.90;;;;;;5055077;28;20209;-80
2022/09/22 00:05:45;;;;;;;7.67;7.13;;;4.90;99.90;;;;;;5062591;28;20177;-80
2022/09/22 00:08:11;;;;;;;9.27;8.57;;;4.90;99.90;;;;;;5064680;28;20239;-80
2022/09/22 00:10:37;;;;;;;8.37;7.87;;;4.80;99.90;;;;;;5070333;28;20173;-78
2022/09/22 00:13:03;;;;;;;11.50;7.10;;;4.80;99.90;;;;;;5086924;28;20200;-78
2022/09/22 00:15:29;;;;;;;7.93;6.97;;;4.80;99.90;;;;;;5077339;28;20178;-80
2022/09/22 00:17:55;;;;;;;7.57;7.00;;;4.70;99.90;;;;;;5082582;28;20217;-79
2022/09/22 00:20:21;;;;;;;7.17;6.67;;;4.70;99.90;;;;;;5078667;28;20186;-80
2022/09/22 00:22:51;;;;;;;7.10;6.63;;;4.60;99.90;;;;;;5073635;28;20220;-79
2022/09/22 00:25:17;;;;;;;7.03;6.63;;;4.60;99.90;;;;;;5071971;28;20638;-79
2022/09/22 00:27:43;;;;;;;11.73;8.33;;;4.60;99.90;;;;;;5072329;28;20185;-78
2022/09/22 00:30:09;;;;;;;7.37;6.97;;;4.50;99.90;;;;;;5072482;28;20174;-79
2022/09/22 00:32:39;;;;;;;10.27;9.67;;;4.50;99.90;;;;;;5072349;28;20326;-80
2022/09/22 00:35:07;;;;;;;8.83;8.23;;;4.50;99.90;;;;;;5071800;28;20545;-80
2022/09/22 00:37:32;;;;;;;7.40;6.70;;;4.50;99.90;;;;;;5071049;28;20177;-78
2022/09/22 00:39:59;;;;;;;9.67;9.10;;;4.40;99.90;;;;;;5055666;28;20209;-80
2022/09/22 00:42:24;;;;;;;8.23;7.73;;;4.40;99.90;;;;;;5052820;28;20228;-80
2022/09/22 00:44:50;;;;;;;8.83;8.33;;;4.40;99.90;;;;;;5069166;28;20189;-79
2022/09/22 00:47:28;;;;;;;9.50;8.90;;;4.40;99.90;;;;;;5069738;28;20174;-80
2022/09/22 00:50:06;;;;;;;8.20;7.70;;;4.30;99.90;;;;;;5053116;28;20188;-80
2022/09/22 00:53:01;;;;;;;8.93;8.33;;;4.30;99.90;;;;;;5057291;28;20223;-80
2022/09/22 00:55:36;;;;;;;8.90;8.10;;;4.30;99.90;;;;;;5073612;28;20188;-79
2022/09/22 00:58:08;;;;;;;10.53;9.83;;;4.30;99.90;;;;;;5072623;28;20182;-79
2022/09/22 01:00:34;;;;;;;9.73;9.03;;;4.30;99.90;;;;;;5078902;28;20204;-77
2022/09/22 01:03:05;;;;;;;9.53;9.03;;;4.30;99.90;;;;;;5079082;28;20213;-79
2022/09/22 01:05:32;;;;;;;9.27;8.63;;;4.20;99.90;;;;;;5075802;28;20585;-79
2022/09/22 01:08:00;;;;;;;8.40;7.93;;;4.20;99.90;;;;;;5056489;28;20209;-78
2022/09/22 01:10:26;;;;;;;9.37;8.67;;;4.20;99.90;;;;;;5055957;28;20236;-79
2022/09/22 01:12:58;;;;;;;10.03;9.30;;;4.20;99.90;;;;;;5052719;28;20222;-78
2022/09/22 01:15:53;;;;;;;9.57;8.70;;;4.20;99.90;;;;;;5052009;28;20184;-78
2022/09/22 01:18:37;;;;;;;10.20;9.60;;;4.20;99.90;;;;;;5068234;28;20850;-79
2022/09/22 01:21:14;;;;;;;13.63;12.53;;;4.20;99.90;;;;;;5051668;28;20190;-79
2022/09/22 01:23:59;;;;;;;12.00;11.10;;;4.10;99.90;;;;;;5068458;28;20212;-79
2022/09/22 01:27:00;;;;;;;10.67;10.07;;;4.10;99.90;;;;;;5053075;28;20206;-79
2022/09/22 01:29:52;;;;;;;10.17;9.43;;;4.10;99.90;;;;;;5068304;28;20181;-79
2022/09/22 01:32:31;;;;;;;10.83;10.17;;;4.00;99.90;;;;;;5059530;28;20202;-77
2022/09/22 01:34:57;;;;;;;11.10;10.20;;;4.00;99.90;;;;;;5103041;28;20199;-78
2022/09/22 01:37:33;;;;;;;12.20;11.40;;;4.00;99.90;;;;;;5072021;28;20213;-79
2022/09/22 01:40:16;;;;;;;12.37;11.27;;;4.00;99.90;;;;;;5073106;28;20227;-77
2022/09/22 01:42:52;;;;;;;11.77;11.17;;;4.00;99.90;;;;;;5079422;28;20258;-79
2022/09/22 01:45:25;;;;;;;11.20;10.60;;;3.90;99.90;;;;;;5079324;28;20190;-78
2022/09/22 01:47:57;;;;;;;10.63;9.87;;;3.90;99.90;;;;;;5071936;28;20177;-79
2022/09/22 01:50:36;;;;;;;10.23;9.53;;;3.80;99.90;;;;;;5075172;28;20670;-79
2022/09/22 01:53:09;;;;;;;10.03;9.43;;;3.80;99.90;;;;;;5075272;28;20201;-79
2022/09/22 01:55:38;;;;;;;11.03;9.90;;;3.80;99.90;;;;;;5076697;28;20182;-79
2022/09/22 01:58:09;;;;;;;14.40;13.40;;;3.70;99.90;;;;;;5074964;28;20196;-80
2022/09/22 02:00:38;;;;;;;12.70;12.00;;;3.70;99.90;;;;;;5076524;28;20188;-77
2022/09/22 02:03:12;;;;;;;15.07;14.17;;;3.60;99.90;;;;;;5055160;28;20214;-80
2022/09/22 02:05:47;;;;;;;13.63;12.67;;;3.60;99.90;;;;;;5071714;28;20281;-80
2022/09/22 02:08:28;;;;;;;11.80;10.97;;;3.60;99.90;;;;;;5055785;28;20665;-80
2022/09/22 02:10:59;;;;;;;15.33;14.33;;;3.60;99.90;;;;;;5057057;28;20277;-80
2022/09/22 02:13:25;;;;;;;14.93;13.67;;;3.60;99.90;;;;;;5072838;28;20761;-80
2022/09/22 02:16:00;;;;;;;13.50;12.63;;;3.60;99.90;;;;;;5100272;28;20215;-79
2022/09/22 02:18:36;;;;;;;9.30;8.73;;;3.70;99.90;;;;;;5082502;28;20565;-80
2022/09/22 02:21:03;;;;;;;10.73;10.07;;;3.60;99.90;;;;;;5077175;28;20258;-80
2022/09/22 02:23:31;;;;;;;10.13;9.43;;;3.60;99.90;;;;;;5075883;28;20240;-80
2022/09/22 02:25:58;;;;;;;11.83;10.67;;;3.60;99.90;;;;;;5075472;28;20646;-80
2022/09/22 02:28:25;;;;;;;13.80;12.90;;;3.50;99.90;;;;;;5075849;28;20205;-80
2022/09/22 02:30:54;;;;;;;11.13;10.13;;;3.50;99.90;;;;;;5056446;28;20660;-81
2022/09/22 02:33:22;;;;;;;10.50;9.80;;;3.50;99.90;;;;;;5056200;28;20210;-81
2022/09/22 02:35:56;;;;;;;10.63;9.93;;;3.40;99.90;;;;;;5087784;28;20208;-79
2022/09/22 02:38:42;;;;;;;11.20;10.50;;;3.40;99.90;;;;;;5067579;28;20197;-80
2022/09/22 02:41:25;;;;;;;10.30;9.70;;;3.40;99.90;;;;;;5074027;28;20186;-79
2022/09/22 02:44:04;;;;;;;10.67;10.07;;;3.40;99.90;;;;;;5090380;28;20190;-78
2022/09/22 02:46:53;;;;;;;11.03;10.37;;;3.40;99.90;;;;;;5068027;28;20240;-78
2022/09/22 02:49:21;;;;;;;11.53;10.83;;;3.40;99.90;;;;;;5077266;28;20170;-79
2022/09/22 02:51:49;;;;;;;10.33;9.73;;;3.40;99.90;;;;;;5079895;28;20261;-81
2022/09/22 02:54:15;;;;;;;10.00;9.40;;;3.40;99.90;;;;;;5073667;28;20186;-81
2022/09/22 02:56:42;;;;;;;10.57;9.77;;;3.30;99.90;;;;;;5070910;28;20675;-81
2022/09/22 02:59:11;;;;;;;10.83;9.97;;;3.30;99.90;;;;;;5075638;28;20253;-81
2022/09/22 03:01:37;;;;;;;10.10;9.50;;;3.30;99.90;;;;;;5074983;28;20213;-80
2022/09/22 03:04:04;;;;;;;11.87;11.10;;;3.20;99.90;;;;;;5065772;28;20397;-79
2022/09/22 03:06:30;;;;;;;10.20;9.50;;;3.20;99.90;;;;;;5071684;28;20682;-80
2022/09/22 03:08:56;;;;;;;12.10;11.20;;;3.20;99.90;;;;;;5070527;28;20206;-80
2022/09/22 03:11:22;;;;;;;12.40;11.60;;;3.20;99.90;;;;;;5071110;28;20289;-81
2022/09/22 03:13:48;;;;;;;10.73;9.87;;;3.20;99.90;;;;;;5055206;28;20666;-80
2022/09/22 03:16:14;;;;;;;14.00;13.10;;;3.20;99.90;;;;;;5054906;28;20273;-80
2022/09/22 03:18:40;;;;;;;9.97;9.07;;;3.20;99.90;;;;;;5069953;28;20182;-79
2022/09/22 03:21:07;;;;;;;12.17;11.27;;;3.30;99.90;;;;;;5070224;28;20192;-80
2022/09/22 03:23:32;;;;;;;13.17;12.33;;;3.20;99.90;;;;;;5059020;28;20194;-80
2022/09/22 03:25:58;;;;;;;13.47;12.47;;;3.20;99.90;;;;;;5074936;28;20662;-80
2022/09/22 03:28:24;;;;;;;12.10;11.40;;;3.10;99.90;;;;;;5074459;28;20177;-80
2022/09/22 03:30:50;;;;;;;11.57;10.87;;;3.10;99.90;;;;;;5074686;28;20213;-80
2022/09/22 03:33:15;;;;;;;9.60;8.87;;;3.10;99.90;;;;;;5072396;28;20201;-80
2022/09/22 03:35:42;;;;;;;9.67;8.20;;;3.10;99.90;;;;;;5072339;28;20174;-80
2022/09/22 03:38:08;;;;;;;11.10;10.30;;;3.20;99.90;;;;;;5070331;28;20232;-79
2022/09/22 03:40:34;;;;;;;9.77;9.17;;;3.10;99.90;;;;;;5071043;28;20194;-80
2022/09/22 03:43:00;;;;;;;8.97;8.30;;;3.10;99.90;;;;;;5054599;28;20217;-79
2022/09/22 03:45:26;;;;;;;10.40;9.37;;;3.10;99.90;;;;;;5062878;28;20207;-80
2022/09/22 03:47:53;;;;;;;14.00;8.83;;;3.10;99.90;;;;;;5065480;28;20173;-80
2022/09/22 03:50:20;;;;;;;9.83;9.03;;;3.10;99.90;;;;;;5078355;28;20173;-78
2022/09/22 03:52:45;;;;;;;12.47;11.50;;;3.00;99.90;;;;;;5086677;28;20202;-78
2022/09/22 03:55:12;;;;;;;12.37;11.27;;;3.00;99.90;;;;;;5077768;28;20177;-80
2022/09/22 03:57:39;;;;;;;13.23;12.13;;;3.00;99.90;;;;;;5078008;28;20720;-79
2022/09/22 04:00:06;;;;;;;12.13;11.00;;;3.00;99.90;;;;;;5071996;28;20205;-79
2022/09/22 04:02:32;;;;;;;13.87;11.60;;;3.00;99.90;;;;;;5101680;22;20416;-80
2022/09/22 04:04:57;;;;;;;15.83;11.73;;;3.10;99.90;;;;;;5098497;28;20185;-78
2022/09/22 04:07:23;;;;;;;12.17;10.97;;;3.00;99.90;;;;;;5080155;28;20181;-80
2022/09/22 04:09:49;;;;;;;11.43;10.43;;;3.00;99.90;;;;;;5075466;28;20182;-79
2022/09/22 04:12:14;;;;;;;12.10;11.07;;;3.00;99.90;;;;;;5069890;28;20201;-79
2022/09/22 04:14:41;;;;;;;14.10;12.83;;;2.90;99.90;;;;;;5055367;28;20257;-80
2022/09/22 04:17:07;;;;;;;15.13;13.77;;;2.90;99.90;;;;;;5056002;28;20216;-79
2022/09/22 04:19:34;;;;;;;11.93;10.83;;;2.90;99.90;;;;;;5055615;28;20567;-80
2022/09/22 04:22:02;;;;;;;14.20;11.40;;;2.90;99.90;;;;;;5073097;28;20666;-79
2022/09/22 04:24:28;;;;;;;13.07;12.10;;;2.90;99.90;;;;;;5079711;28;20185;-79
2022/09/22 04:26:54;;;;;;;13.80;12.50;;;2.90;99.90;;;;;;5058792;28;20713;-79
2022/09/22 04:29:20;;;;;;;12.10;11.13;;;2.90;99.90;;;;;;5072892;28;20599;-78
2022/09/22 04:31:46;;;;;;;11.17;10.17;;;2.80;99.90;;;;;;5055414;28;20185;-79
2022/09/22 04:34:12;;;;;;;13.70;11.67;;;2.80;99.90;;;;;;5072665;28;20761;-80
2022/09/22 04:36:38;;;;;;;15.20;13.67;;;2.70;99.90;;;;;;5054978;28;20201;-77
2022/09/22 04:39:04;;;;;;;13.97;12.67;;;2.70;99.90;;;;;;5055256;28;20177;-79
2022/09/22 04:41:30;;;;;;;13.43;12.03;;;2.60;99.90;;;;;;5059369;28;20658;-79
2022/09/22 04:43:56;;;;;;;11.77;10.67;;;2.60;99.90;;;;;;5056441;28;20595;-79
2022/09/22 04:46:22;;;;;;;13.10;12.07;;;2.60;99.90;;;;;;5073434;28;20182;-80
2022/09/22 04:48:47;;;;;;;12.70;11.50;;;2.60;99.90;;;;;;5074359;28;20178;-79
2022/09/22 04:51:13;;;;;;;13.23;12.03;;;2.60;99.90;;;;;;5075382;28;20178;-79
2022/09/22 04:53:39;;;;;;;14.80;13.67;;;2.60;99.90;;;;;;5055579;28;20201;-79
2022/09/22 04:56:05;;;;;;;16.83;15.63;;;2.60;99.90;;;;;;5055138;28;20181;-80
2022/09/22 04:58:31;;;;;;;16.97;15.53;;;2.60;99.90;;;;;;5071831;28;20777;-80
2022/09/22 05:01:05;;;;;;;16.53;15.23;;;2.60;99.90;;;;;;5054943;28;20205;-80
2022/09/22 05:03:31;;;;;;;16.73;15.23;;;2.60;99.90;;;;;;5055401;28;20244;-80
2022/09/22 05:05:57;;;;;;;16.10;15.03;;;2.60;99.90;;;;;;5073892;28;20193;-80
2022/09/22 05:08:23;;;;;;;19.93;18.73;;;2.60;99.90;;;;;;5054431;28;20178;-79
2022/09/22 05:10:50;;;;;;;19.20;17.90;;;2.60;99.90;;;;;;5057676;28;20178;-77
2022/09/22 05:13:16;;;;;;;17.50;16.17;;;2.70;99.90;;;;;;5057906;28;20231;-76
2022/09/22 05:15:42;;;;;;;16.57;15.47;;;2.70;99.90;;;;;;5054954;28;20243;-78
2022/09/22 05:18:08;;;;;;;14.80;13.80;;;2.70;99.90;;;;;;5054703;28;20664;-78
2022/09/22 05:20:34;;;;;;;15.90;14.90;;;2.70;99.90;;;;;;5072382;28;20182;-78
2022/09/22 05:23:00;;;;;;;13.57;12.17;;;2.60;99.90;;;;;;5074611;28;20269;-79
2022/09/22 05:25:26;;;;;;;13.70;12.47;;;2.60;99.90;;;;;;5059129;28;20336;-79
2022/09/22 05:27:53;;;;;;;14.50;13.30;;;2.70;99.90;;;;;;5076437;28;20532;-79
2022/09/22 05:30:21;;;;;;;13.03;11.73;;;2.80;99.90;;;;;;5058996;28;20177;-79
2022/09/22 05:32:48;;;;;;;13.80;12.70;;;2.90;99.90;;;;;;5076728;28;20201;-78
2022/09/22 05:35:20;;;;;;;15.10;14.03;;;3.00;99.90;;;;;;5058136;28;20173;-78
2022/09/22 05:37:48;;;;;;;17.83;16.63;;;3.10;99.90;;;;;;5079369;28;20185;-77
2022/09/22 05:40:14;;;;;;;20.27;18.90;;;3.20;99.90;;;;;;5086162;28;20696;-79
2022/09/22 05:42:50;;;;;;;13.30;10.67;;;3.20;99.90;;;;;;5076213;28;20213;-78
2022/09/22 05:45:17;;;;;;;12.70;11.70;;;3.30;99.90;;;;;;5075759;28;20189;-79
2022/09/22 05:47:43;;;;;;;13.27;12.10;;;3.40;99.90;;;;;;5058369;28;20200;-79
2022/09/22 05:50:11;;;;;;;12.53;11.53;;;3.50;99.90;;;;;;5079763;28;20761;-75
2022/09/22 05:52:37;;;;;;;11.87;10.73;;;3.50;99.90;;;;;;5067272;28;20213;-78
2022/09/22 05:55:03;;;;;;;11.77;10.87;;;3.60;99.90;;;;;;5064002;28;20190;-78
2022/09/22 05:57:31;;;;;;;10.20;9.30;;;3.70;99.90;;;;;;5053772;28;20186;-78
2022/09/22 05:59:57;;;;;;;12.53;11.33;;;3.80;99.90;;;;;;5055300;28;20213;-78
2022/09/22 06:02:23;;;;;;;10.87;10.13;;;3.90;99.90;;;;;;5054274;28;20214;-78
2022/09/22 06:04:51;;;;;;;10.90;10.10;;;4.10;99.90;;;;;;5059433;28;20186;-78
2022/09/22 06:07:21;;;;;;;13.80;12.73;;;4.20;99.90;;;;;;5060046;28;20173;-77
2022/09/22 06:09:47;;;;;;;12.03;11.13;;;4.30;99.90;;;;;;5070174;28;20185;-76
2022/09/22 06:12:13;;;;;;;11.23;10.27;;;4.40;99.90;;;;;;5072605;28;20193;-77
2022/09/22 06:14:39;;;;;;;11.27;10.27;;;4.50;99.90;;;;;;5080973;28;20189;-76
2022/09/22 06:17:09;;;;;;;13.00;12.00;;;4.60;99.90;;;;;;5056120;28;20242;-76
2022/09/22 06:19:35;;;;;;;10.90;10.00;;;4.70;99.90;;;;;;5073940;28;20188;-77
2022/09/22 06:22:01;;;;;;;20.23;18.93;;;4.90;99.90;;;;;;5073702;28;20194;-78
2022/09/22 06:24:28;;;;;;;12.90;12.00;;;5.00;99.90;;;;;;5056865;28;20188;-78
2022/09/22 06:26:53;;;;;;;13.97;12.13;;;5.10;99.90;;;;;;5074612;28;20181;-77
2022/09/22 06:29:19;;;;;;;9.67;8.83;;;5.30;99.90;;;;;;5064744;28;20558;-78
2022/09/22 06:31:47;;;;;;;11.60;10.80;;;5.40;99.90;;;;;;5058165;28;20220;-78
2022/09/22 06:34:13;;;;;;;9.50;8.60;;;5.70;99.90;;;;;;5058690;28;20193;-77
2022/09/22 06:36:44;;;;;;;10.03;9.23;;;5.90;99.90;;;;;;5055102;28;20177;-77
2022/09/22 06:39:11;;;;;;;18.97;17.60;;;6.60;99.90;;;;;;5073255;28;20173;-76
2022/09/22 06:41:37;;;;;;;19.30;17.67;;;7.50;99.90;;;;;;5055070;28;20306;-72
2022/09/22 06:44:04;;;;;;;10.20;9.60;;;8.40;99.90;;;;;;5057724;28;20309;-77
2022/09/22 06:46:32;;;;;;;8.63;8.10;;;9.40;99.90;;;;;;5058827;28;20700;-79
2022/09/22 06:48:59;;;;;;;9.27;8.33;;;9.90;99.90;;;;;;5076579;28;20188;-80
2022/09/22 06:51:31;;;;;;;10.10;9.50;;;10.50;99.90;;;;;;5076767;28;20185;-78
2022/09/22 06:53:59;;;;;;;23.67;22.10;;;10.90;99.90;;;;;;5074510;28;20198;-78
2022/09/22 06:56:26;;;;;;;27.07;25.60;;;11.30;99.90;;;;;;5056339;28;20258;-80
2022/09/22 06:58:55;;;;;;;17.20;15.87;;;11.60;99.90;;;;;;5057768;28;20185;-82
2022/09/22 07:01:22;;;;;;;11.47;10.73;;;12.00;99.90;;;;;;5074639;28;20178;-78
2022/09/22 07:03:49;;;;;;;14.80;13.80;;;12.20;99.90;;;;;;5056297;28;20212;-81
2022/09/22 07:06:17;;;;;;;15.47;14.47;;;12.20;99.90;;;;;;5055955;28;20178;-79
2022/09/22 07:08:47;;;;;;;11.37;10.60;;;12.40;99.90;;;;;;5062900;28;20654;-81
2022/09/22 07:11:25;;;;;;;10.80;8.77;;;12.50;99.90;;;;;;5062999;28;20185;-80
2022/09/22 07:13:52;;;;;;;10.50;9.70;;;12.80;99.90;;;;;;5060628;28;20259;-77
2022/09/22 07:16:20;;;;;;;12.77;11.77;;;12.80;99.90;;;;;;5057494;28;20205;-79
2022/09/22 07:18:49;;;;;;;11.87;11.07;;;12.40;99.90;;;;;;5057819;28;20251;-79
2022/09/22 07:21:21;;;;;;;13.10;12.00;;;12.50;99.90;;;;;;5060829;28;20284;-81
2022/09/22 07:23:51;;;;;;;20.67;19.47;;;12.70;99.90;;;;;;5084900;28;20221;-77
2022/09/22 07:26:20;;;;;;;20.50;19.17;;;13.10;99.90;;;;;;5061805;28;20174;-79
2022/09/22 07:28:50;;;;;;;15.70;14.73;;;13.70;99.90;;;;;;5058633;28;20174;-79
2022/09/22 07:31:16;;;;;;;8.73;8.13;;;14.00;99.90;;;;;;5079279;28;20182;-78
2022/09/22 07:33:44;;;;;;;6.70;6.27;;;13.90;99.90;;;;;;5075514;28;20198;-77
2022/09/22 07:36:17;;;;;;;7.03;6.33;;;14.40;99.90;;;;;;5074016;28;20178;-77
2022/09/22 07:38:49;;;;;;;6.87;6.13;;;14.70;99.90;;;;;;5057586;28;20245;-78
2022/09/22 07:41:20;;;;;;;6.37;5.83;;;14.90;99.90;;;;;;5080423;28;20204;-77
2022/09/22 07:43:51;;;;;;;6.13;5.73;;;15.20;99.90;;;;;;5080783;28;20286;-77
2022/09/22 07:46:18;;;;;;;6.67;6.17;;;15.20;99.90;;;;;;5056564;28;20230;-78
2022/09/22 07:48:45;;;;;;;15.27;6.70;;;15.10;99.90;;;;;;5075599;28;20185;-77
2022/09/22 07:51:19;;;;;;;6.87;6.37;;;15.00;99.90;;;;;;5077934;28;20553;-77
2022/09/22 07:53:53;;;;;;;9.70;8.97;;;15.10;99.90;;;;;;5056831;28;20678;-76
2022/09/22 07:56:26;;;;;;;10.47;9.57;;;15.30;99.90;;;;;;5058542;28;20176;-78
2022/09/22 07:58:53;;;;;;;10.17;9.37;;;15.20;99.90;;;;;;5067579;28;20190;-76
2022/09/22 08:01:22;;;;;;;9.97;9.23;;;15.50;99.90;;;;;;5078109;28;20182;-76
2022/09/22 08:03:49;;;;;;;8.57;7.80;;;15.90;99.90;;;;;;5073506;28;20305;-77
2022/09/22 08:06:18;;;;;;;7.63;7.00;;;16.20;99.90;;;;;;5055673;28;20237;-77
2022/09/22 08:08:47;;;;;;;7.77;6.90;;;16.30;99.90;;;;;;5057021;28;20273;-78
2022/09/22 08:11:16;;;;;;;8.00;7.40;;;16.50;99.90;;;;;;5054875;28;20177;-82
2022/09/22 08:13:47;;;;;;;9.17;8.47;;;16.70;99.90;;;;;;5075653;28;20244;-78
2022/09/22 08:16:15;;;;;;;7.47;6.93;;;16.40;99.90;;;;;;5057444;28;20224;-81
2022/09/22 08:18:41;;;;;;;9.37;8.73;;;16.60;99.90;;;;;;5059532;28;20207;-79
2022/09/22 08:21:07;;;;;;;9.70;9.10;;;16.40;99.90;;;;;;5067505;28;20245;-80
2022/09/22 08:23:33;;;;;;;10.27;9.57;;;16.70;99.90;;;;;;5056832;28;20220;-81
2022/09/22 08:26:05;;;;;;;11.60;10.90;;;16.90;99.90;;;;;;5077835;28;20657;-82
2022/09/22 08:28:32;;;;;;;14.23;13.23;;;17.10;99.90;;;;;;5059611;28;20177;-80
2022/09/22 08:30:58;;;;;;;18.83;17.83;;;17.30;99.90;;;;;;5060247;28;20173;-81
2022/09/22 08:33:27;;;;;;;20.97;19.87;;;17.30;99.90;;;;;;5060206;28;20208;-81
2022/09/22 08:35:55;;;;;;;23.43;22.30;;;17.50;99.90;;;;;;5059444;28;20178;-80
2022/09/22 08:38:22;;;;;;;25.27;24.03;;;17.40;99.90;;;;;;5061309;28;20182;-81
2022/09/22 08:41:17;;;;;;;25.93;24.57;;;17.70;99.90;;;;;;5060922;28;20185;-81
2022/09/22 08:43:54;;;;;;;26.57;25.17;;;17.90;99.90;;;;;;5059091;28;20743;-79
2022/09/22 08:46:32;;;;;;;25.40;24.23;;;17.40;99.90;;;;;;5077400;28;20226;-79
2022/09/22 08:51:55;;;;;;;27.00;25.60;;;17.00;99.90;;;;;;5078503;28;20182;-79
2022/09/22 08:54:30;;;;;;;23.33;22.17;;;16.80;99.90;;;;;;5060629;28;20178;-77
2022/09/22 08:57:30;;;;;;;18.10;17.10;;;17.00;99.90;;;;;;5058477;28;20257;-80
2022/09/22 09:00:13;;;;;;;26.43;24.93;;;17.50;99.90;;;;;;5078716;28;20182;-77
2022/09/22 09:02:44;;;;;;;26.47;25.20;;;17.80;99.90;;;;;;5061277;28;20217;-78
2022/09/22 09:05:29;;;;;;;29.80;28.30;;;18.20;99.90;;;;;;5059532;28;20182;-80
2022/09/22 09:08:15;;;;;;;30.23;28.63;;;18.50;99.90;;;;;;5058217;28;20209;-79
2022/09/22 09:10:54;;;;;;;24.43;23.23;;;18.20;99.90;;;;;;5061758;28;20186;-78
2022/09/22 09:13:48;;;;;;;31.47;29.97;;;18.30;99.90;;;;;;5065288;28;20241;-80
2022/09/22 09:16:37;;;;;;;23.23;22.07;;;18.20;99.90;;;;;;5061042;28;20190;-80
2022/09/22 09:19:14;;;;;;;24.97;23.77;;;18.40;99.90;;;;;;5062368;28;20181;-80
2022/09/22 09:21:47;;;;;;;7.77;7.37;;;18.40;99.90;;;;;;5080729;28;20181;-81
2022/09/22 09:24:21;;;;;;;5.43;5.23;;;18.60;99.90;;;;;;5061980;28;20208;-80
2022/09/22 09:26:49;;;;;;;6.63;6.07;;;18.30;99.90;;;;;;5077715;28;20170;-80
2022/09/22 09:29:22;;;;;;;7.67;7.33;;;18.20;99.90;;;;;;5062505;28;20178;-80
2022/09/22 09:31:52;;;;;;;6.23;5.93;;;18.20;99.90;;;;;;5060538;28;20183;-79
2022/09/22 09:34:21;;;;;;;6.60;6.20;;;18.50;99.90;;;;;;5061750;28;20178;-80
2022/09/22 09:36:53;;;;;;;5.80;5.50;;;18.70;99.60;;;;;;5077595;28;20179;-81
2022/09/22 09:39:31;;;;;;;5.30;5.10;;;18.80;99.40;;;;;;5060776;28;20181;-80
2022/09/22 09:41:58;;;;;;;5.77;5.50;;;19.30;98.80;;;;;;5066926;28;20202;-78
2022/09/22 09:44:37;;;;;;;5.40;5.10;;;20.00;97.50;;;;;;5066164;28;20216;-79
2022/09/22 09:47:06;;;;;;;7.10;6.70;;;20.00;96.50;;;;;;5079801;28;20178;-78
2022/09/22 09:49:32;;;;;;;6.67;6.37;;;19.70;95.90;;;;;;5060247;28;20201;-80
2022/09/22 09:52:06;;;;;;;6.77;6.53;;;20.00;96.10;;;;;;5058123;28;20206;-78
2022/09/22 09:54:32;;;;;;;6.30;6.00;;;19.90;95.40;;;;;;5058399;28;20185;-80
2022/09/22 09:57:06;;;;;;;5.87;5.57;;;20.20;95.60;;;;;;5061335;28;20174;-79
2022/09/22 10:02:27;;;;;;;4.87;4.53;;;20.90;93.80;;;;;;5087564;22;20234;-74
2022/09/22 10:04:57;;;;;;;4.77;4.57;;;21.10;92.60;;;;;;5031041;28;20695;-73
2022/09/22 10:07:26;;;;;;;5.87;5.40;;;21.40;91.40;;;;;;5029322;28;20210;-73
2022/09/22 10:09:53;;;;;;;4.57;4.40;;;21.40;91.60;;;;;;5034240;28;20628;-73
2022/09/22 10:12:27;;;;;;;4.00;3.90;;;21.40;91.50;;;;;;5034155;28;20586;-73
2022/09/22 10:14:59;;;;;;;3.53;3.42;;;21.90;91.40;;;;;;5034369;28;20187;-73
2022/09/22 10:17:38;;;;;;;7.60;7.30;;;22.50;88.40;;;;;;5033599;28;20191;-73
2022/09/22 10:20:27;;;;;;;6.65;6.35;;;23.00;84.20;;;;;;5034446;28;20214;-74
2022/09/22 10:22:54;;;;;;;9.65;9.10;;;22.90;84.20;;;;;;5034214;28;20210;-74
2022/09/22 10:25:30;;;;;;;9.82;9.27;;;22.20;82.60;;;;;;5034264;28;20202;-74
2022/09/22 10:27:59;;;;;;;10.70;10.20;;;22.30;83.90;;;;;;5033420;28;20187;-73
2022/09/22 10:30:26;;;;;;;9.63;9.10;;;22.60;82.40;;;;;;5016453;28;20270;-73
2022/09/22 10:33:05;;;;;;;9.48;8.95;;;22.00;83.30;;;;;;5016413;28;20561;-73
2022/09/22 10:35:33;;;;;;;10.07;9.55;;;22.50;86.40;;;;;;5049957;28;20754;-74
2022/09/22 10:38:14;;;;;;;21.75;20.73;;;23.30;81.90;;;;;;5044612;28;20201;-73
2022/09/22 10:40:45;;;;;;;22.98;21.92;;;23.50;76.80;;;;;;5023286;28;20602;-73
2022/09/22 10:43:34;;;;;;;17.35;16.25;;;23.90;74.10;;;;;;5033727;28;20211;-74
2022/09/22 10:46:22;;;;;;;12.77;12.27;;;23.80;72.40;;;;;;5033765;28;20211;-74
2022/09/22 10:48:53;;;;;;;9.07;8.68;;;23.60;71.90;;;;;;5013614;28;20172;-74
2022/09/22 10:51:47;;;;;;;10.90;10.25;;;23.70;70.10;;;;;;5014000;28;20271;-74
2022/09/22 10:54:15;;;;;;;15.65;14.88;;;23.60;69.70;;;;;;5013860;28;20289;-73
2022/09/22 10:57:08;;;;;;;7.18;6.63;;;23.50;70.50;;;;;;5017675;28;20203;-73
2022/09/22 11:00:01;;;;;;;8.32;7.93;;;22.90;69.70;;;;;;5033318;28;20183;-73
2022/09/22 11:02:48;;;;;;;16.88;16.08;;;23.10;70.70;;;;;;5033140;28;20214;-74
2022/09/22 11:14:10;;;;;;;4.30;4.10;;;24.40;66.60;;;;;;5033224;28;20229;-73
2022/09/22 11:16:45;;;;;;;4.28;3.97;;;24.20;66.00;;;;;;5032853;28;20175;-73
2022/09/22 11:19:33;;;;;;;3.85;3.60;;;24.70;65.10;;;;;;5032708;28;20182;-73
2022/09/22 11:22:16;;;;;;;3.35;3.25;;;24.70;63.90;;;;;;5015083;28;20182;-73
2022/09/22 11:24:43;;;;;;;3.38;2.63;;;24.50;63.70;;;;;;5033346;28;20597;-74
2022/09/22 11:27:27;;;;;;;3.05;2.95;;;24.70;62.50;;;;;;5040619;28;20391;-73
2022/09/22 11:30:04;;;;;;;3.35;3.22;;;24.80;61.80;;;;;;5034219;28;20194;-73
2022/09/22 11:32:42;;;;;;;3.65;3.42;;;25.10;62.50;;;;;;5032850;28;20571;-74
2022/09/22 11:35:39;;;;;;;3.70;3.60;;;24.60;61.60;;;;;;5035687;28;20234;-73
2022/09/22 11:38:43;;;;;;;3.40;3.30;;;25.50;62.50;;;;;;5056162;28;20194;-74
2022/09/22 11:41:17;;;;;;;3.00;2.80;;;26.60;60.30;;;;;;5017947;28;20675;-74
2022/09/22 11:44:28;;;;;;;5.00;4.80;;;27.10;57.40;;;;;;5038649;28;20301;-74
2022/09/22 11:47:11;;;;;;;4.93;4.75;;;26.80;56.60;;;;;;4988262;28;20194;-72
2022/09/22 11:49:46;;;;;;;4.65;4.45;;;26.40;56.00;;;;;;5032555;28;20179;-73
2022/09/22 11:52:22;;;;;;;6.18;5.88;;;26.70;54.60;;;;;;5032491;28;20206;-74
2022/09/22 11:55:10;;;;;;;6.13;5.72;;;27.10;54.30;;;;;;5033468;28;20301;-73
2022/09/22 11:57:40;;;;;;;3.83;3.63;;;25.90;54.60;;;;;;5032053;28;20274;-73
2022/09/22 12:00:18;;;;;;;3.72;3.63;;;25.20;55.20;;;;;;5032251;28;20184;-73
2022/09/22 12:02:54;;;;;;;3.58;3.47;;;25.70;55.70;;;;;;5031876;28;20699;-74
2022/09/22 12:05:29;;;;;;;5.10;4.95;;;24.90;55.20;;;;;;5014733;28;20189;-73
2022/09/22 12:08:10;;;;;;;4.00;3.90;;;25.40;55.30;;;;;;5031062;28;20654;-73
2022/09/22 12:10:39;;;;;;;4.38;4.18;;;25.80;55.70;;;;;;5014485;28;20183;-73
2022/09/22 12:13:24;;;;;;;5.38;4.35;;;26.40;54.30;;;;;;5014215;28;20210;-74
2022/09/22 12:16:09;;;;;;;4.35;4.25;;;26.30;54.10;;;;;;5033868;28;20605;-73
2022/09/22 12:18:53;;;;;;;4.18;3.97;;;27.10;52.30;;;;;;5038273;28;20178;-74
2022/09/22 12:21:27;;;;;;;4.85;4.65;;;27.30;52.80;;;;;;5014253;28;20186;-73
2022/09/22 12:23:53;;;;;;;5.13;4.75;;;27.40;51.40;;;;;;5031644;28;20221;-74
2022/09/22 12:26:31;;;;;;;6.70;6.40;;;27.20;50.80;;;;;;5014218;28;20181;-73
2022/09/22 12:28:59;;;;;;;5.80;5.47;;;27.00;50.80;;;;;;5011551;28;20183;-73
2022/09/22 12:31:34;;;;;;;5.75;5.55;;;27.00;50.60;;;;;;5011737;28;20187;-73
2022/09/22 12:34:01;;;;;;;5.35;4.90;;;28.00;50.20;;;;;;5011745;28;20237;-73
2022/09/22 12:36:38;;;;;;;5.10;4.90;;;28.40;48.80;;;;;;5011823;28;20284;-73
2022/09/22 12:39:10;;;;;;;5.10;4.90;;;27.70;48.80;;;;;;5011489;28;20195;-74
2022/09/22 12:41:46;;;;;;;4.75;4.53;;;27.30;49.70;;;;;;5011700;28;20238;-73
2022/09/22 12:44:18;;;;;;;5.93;5.72;;;27.90;48.50;;;;;;5011689;28;20223;-74
2022/09/22 12:46:44;;;;;;;4.53;4.40;;;27.60;49.00;;;;;;5013113;28;20230;-73
2022/09/22 12:49:15;;;;;;;6.00;5.20;;;26.70;49.30;;;;;;5031224;28;20179;-74
2022/09/22 12:51:41;;;;;;;4.40;4.25;;;28.00;48.50;;;;;;5031524;28;20658;-73
2022/09/22 12:54:23;;;;;;;4.63;4.45;;;28.30;47.60;;;;;;5031375;28;20183;-74
2022/09/22 12:56:57;;;;;;;5.10;4.90;;;27.80;46.90;;;;;;5013302;28;20178;-74
2022/09/22 12:59:35;;;;;;;4.57;4.45;;;28.20;47.60;;;;;;5031420;28;20241;-74
2022/09/22 13:02:13;;;;;;;4.55;4.35;;;27.90;47.90;;;;;;5031098;28;20215;-74
2022/09/22 13:04:39;;;;;;;5.45;5.25;;;27.90;48.40;;;;;;5013783;28;20194;-74
2022/09/22 13:07:43;;;;;;;5.30;5.10;;;28.40;46.50;;;;;;5041739;28;20175;-74
2022/09/22 13:10:21;;;;;;;4.82;4.45;;;27.00;47.90;;;;;;5013738;28;20278;-74
2022/09/22 13:13:00;;;;;;;4.60;4.40;;;27.20;48.20;;;;;;5031025;28;20582;-73
2022/09/22 13:15:32;;;;;;;5.10;4.63;;;27.10;48.00;;;;;;5031126;28;20186;-73
2022/09/22 13:17:58;;;;;;;4.13;4.03;;;27.10;47.50;;;;;;5030766;28;20198;-74
2022/09/22 13:20:30;;;;;;;3.85;3.75;;;26.90;48.00;;;;;;5031370;28;20179;-74